Time;durP1;ratioP1;P1;durP2;ratioP2;P2;SDS_P1;SDS_P2;PMS_P1;PMS_P2;Temp;Humidity;BMP_temperature;BMP_pressure;BME280_temperature;BME280_humidity;BME280_pressure;Samples;Min_cycle;Max_cycle;Signal;HPM_P1;HPM_P2
2024/01/14 00:01:58;;;;;;;21.70;9.83;;;1.30;99.90;;;1.09;80.57;100791.81;4825423;28;24521;-66
2024/01/14 00:04:20;;;;;;;22.13;10.20;;;1.30;99.90;;;0.99;80.45;100792.97;4828710;28;24491;-65
2024/01/14 00:06:42;;;;;;;25.15;11.02;;;1.30;99.90;;;1.01;80.61;100792.94;4822763;28;24440;-63
2024/01/14 00:09:04;;;;;;;22.13;9.93;;;1.20;99.90;;;1.05;80.61;100785.06;4825685;28;24459;-64
2024/01/14 00:11:27;;;;;;;23.80;11.20;;;1.30;99.90;;;1.04;80.52;100783.41;4830808;28;24565;-65
2024/01/14 00:13:49;;;;;;;24.65;11.10;;;1.30;99.90;;;1.06;80.45;100789.34;4825111;28;24483;-65
2024/01/14 00:16:11;;;;;;;24.67;11.18;;;1.20;99.90;;;1.03;81.09;100779.16;4831243;28;24483;-65
2024/01/14 00:18:32;;;;;;;23.35;10.57;;;1.30;99.90;;;1.04;80.44;100780.00;4834120;28;24542;-66
2024/01/14 00:20:55;;;;;;;21.73;10.00;;;1.20;99.90;;;1.05;80.45;100772.22;4834185;28;24887;-65
2024/01/14 00:23:17;;;;;;;23.52;10.50;;;1.20;99.90;;;0.96;80.43;100766.56;4829034;28;24425;-66
2024/01/14 00:25:39;;;;;;;24.27;10.32;;;1.20;99.90;;;0.94;80.87;100768.31;4833051;28;24459;-65
2024/01/14 00:28:02;;;;;;;21.92;10.90;;;1.20;99.90;;;0.97;80.90;100769.06;4820732;28;24498;-64
2024/01/14 00:30:24;;;;;;;22.70;9.80;;;1.20;99.90;;;0.97;80.77;100760.50;4833294;28;24539;-63
2024/01/14 00:32:46;;;;;;;22.52;10.32;;;1.20;99.90;;;0.96;80.74;100758.84;4832680;28;24523;-64
2024/01/14 00:35:08;;;;;;;22.90;11.02;;;1.20;99.90;;;0.95;81.16;100749.44;4829105;28;24432;-64
2024/01/14 00:37:30;;;;;;;25.00;10.90;;;1.20;99.90;;;0.98;80.80;100752.75;4818596;28;24532;-64
2024/01/14 00:39:52;;;;;;;23.77;10.95;;;1.20;99.90;;;0.97;80.66;100745.94;4829446;28;24937;-64
2024/01/14 00:42:14;;;;;;;21.33;10.20;;;1.20;99.90;;;0.93;80.92;100746.94;4834598;28;24923;-64
2024/01/14 00:44:36;;;;;;;24.85;11.27;;;1.20;99.90;;;0.96;80.58;100740.88;4833659;28;24523;-65
2024/01/14 00:46:58;;;;;;;24.27;11.55;;;1.20;99.90;;;0.84;81.15;100734.34;4819004;28;24488;-64
2024/01/14 00:49:20;;;;;;;24.63;11.52;;;1.10;99.90;;;0.80;81.38;100725.06;4830190;28;24494;-64
2024/01/14 00:51:42;;;;;;;23.95;11.02;;;1.10;99.90;;;0.80;81.54;100730.22;4835627;28;24547;-65
2024/01/14 00:54:04;;;;;;;24.67;10.57;;;1.00;99.90;;;0.84;81.36;100723.25;4826980;28;24449;-64
2024/01/14 00:56:26;;;;;;;24.63;11.00;;;1.00;99.90;;;0.86;81.18;100727.44;4826450;28;24435;-65
2024/01/14 00:58:48;;;;;;;27.33;11.38;;;1.10;99.90;;;0.87;81.11;100715.44;4826800;28;24460;-64
2024/01/14 01:01:10;;;;;;;24.20;11.10;;;1.10;99.90;;;0.86;81.32;100714.59;4830784;28;24514;-64
2024/01/14 01:03:33;;;;;;;26.55;11.82;;;1.10;99.90;;;0.90;81.41;100725.63;4828007;28;24452;-64
2024/01/14 01:05:55;;;;;;;26.37;11.83;;;1.10;99.90;;;0.92;80.76;100722.13;4823424;28;21326;-63
2024/01/14 01:08:17;;;;;;;23.80;10.60;;;1.10;99.90;;;0.94;81.11;100714.38;4825332;28;25005;-64
2024/01/14 01:10:39;;;;;;;26.80;11.87;;;1.10;99.90;;;0.95;81.12;100706.63;4833789;28;24479;-64
2024/01/14 01:13:02;;;;;;;21.42;9.85;;;1.10;99.90;;;0.90;80.88;100700.78;4827100;28;24487;-64
2024/01/14 01:15:24;;;;;;;25.48;11.85;;;1.20;99.90;;;0.87;81.31;100694.91;4832797;28;24480;-62
2024/01/14 01:17:46;;;;;;;25.70;12.15;;;1.10;99.90;;;0.89;81.13;100693.13;4829464;28;24898;-64
2024/01/14 01:20:08;;;;;;;25.48;11.82;;;1.10;99.90;;;0.90;81.27;100703.34;4824334;28;24459;-64
2024/01/14 01:22:30;;;;;;;21.50;9.50;;;1.10;99.90;;;0.92;81.12;100699.00;4831779;28;24482;-62
2024/01/14 01:24:52;;;;;;;23.27;10.80;;;1.10;99.90;;;0.93;81.25;100702.41;4831004;28;24841;-63
2024/01/14 01:27:14;;;;;;;25.75;12.07;;;1.10;99.90;;;0.93;81.16;100698.13;4821153;28;24511;-63
2024/01/14 01:29:36;;;;;;;23.50;9.63;;;1.10;99.90;;;0.94;81.19;100689.50;4834557;28;24548;-65
2024/01/14 01:31:58;;;;;;;22.50;10.25;;;1.10;99.90;;;0.87;81.04;100690.63;4817366;28;24460;-64
2024/01/14 01:34:29;;;;;;;24.20;11.97;;;1.10;99.90;;;0.84;81.31;100697.56;4828009;28;24502;-64
2024/01/14 01:36:53;;;;;;;22.80;10.63;;;1.10;99.90;;;0.83;81.58;100699.31;4817781;28;24448;-64
2024/01/14 01:39:15;;;;;;;25.60;11.43;;;1.10;99.90;;;0.81;81.44;100693.34;4831472;28;24459;-64
2024/01/14 01:41:37;;;;;;;25.75;11.20;;;1.00;99.90;;;0.76;82.11;100690.09;4830567;28;24459;-64
2024/01/14 01:43:59;;;;;;;21.55;9.77;;;1.00;99.90;;;0.75;81.82;100691.81;4832073;28;24482;-64
2024/01/14 01:46:21;;;;;;;26.25;12.35;;;1.00;99.90;;;0.71;81.98;100692.81;4818307;28;24453;-64
2024/01/14 01:48:43;;;;;;;24.52;11.25;;;1.00;99.90;;;0.75;82.35;100690.97;4824259;28;24437;-65
2024/01/14 01:51:06;;;;;;;23.63;10.38;;;1.00;99.90;;;0.75;82.23;100691.81;4807188;28;24451;-64
2024/01/14 01:53:28;;;;;;;22.65;10.88;;;1.00;99.90;;;0.81;82.29;100700.22;4815390;28;24437;-64
2024/01/14 01:55:52;;;;;;;25.23;10.63;;;1.00;99.90;;;0.79;82.12;100693.41;4817030;28;24543;-64
2024/01/14 01:58:14;;;;;;;21.35;9.43;;;1.00;99.90;;;0.68;82.68;100686.94;4816315;28;24874;-64
2024/01/14 02:00:38;;;;;;;24.83;10.93;;;1.00;99.90;;;0.70;82.31;100690.28;4816103;28;24524;-63
2024/01/14 02:03:02;;;;;;;24.63;10.70;;;1.00;99.90;;;0.67;82.34;100682.66;4824117;28;24547;-64
2024/01/14 02:05:28;;;;;;;23.40;11.30;;;1.00;99.90;;;0.71;82.40;100676.56;4832393;28;24540;-64
2024/01/14 02:07:50;;;;;;;23.65;10.35;;;0.90;99.90;;;0.74;82.65;100674.75;4817332;28;24468;-64
2024/01/14 02:10:12;;;;;;;26.33;10.90;;;1.00;99.90;;;0.75;82.60;100671.28;4818622;28;25235;-65
2024/01/14 02:12:34;;;;;;;19.13;9.15;;;1.00;99.90;;;0.71;82.62;100671.41;4829423;28;24506;-63
2024/01/14 02:14:56;;;;;;;22.42;8.85;;;1.00;99.90;;;0.74;82.29;100669.63;4826437;28;24499;-63
2024/01/14 02:17:18;;;;;;;23.25;10.00;;;1.00;99.90;;;0.74;82.81;100661.06;4823400;28;24452;-64
2024/01/14 02:19:40;;;;;;;23.88;10.00;;;1.00;99.90;;;0.75;82.73;100657.59;4825387;28;24553;-63
2024/01/14 02:22:18;;;;;;;27.25;9.80;;;1.00;99.90;;;0.76;82.70;100662.69;4832846;28;24432;-64
2024/01/14 02:24:40;;;;;;;24.58;10.63;;;1.00;99.90;;;0.76;82.68;100656.72;4820673;28;24429;-64
2024/01/14 02:27:02;;;;;;;23.27;10.18;;;1.00;99.90;;;0.78;82.73;100660.06;4833827;28;24482;-65
2024/01/14 02:29:27;;;;;;;24.33;10.75;;;1.00;99.90;;;0.79;82.96;100646.31;4834426;28;25090;-64
2024/01/14 02:31:49;;;;;;;21.48;8.88;;;1.00;99.90;;;0.84;82.73;100648.75;4832064;28;24460;-64
2024/01/14 02:34:12;;;;;;;20.75;8.73;;;1.00;99.90;;;0.70;83.02;100649.19;4828814;28;24994;-64
2024/01/14 02:36:34;;;;;;;22.02;9.20;;;1.00;99.90;;;0.72;83.05;100650.81;4829620;28;24429;-64
2024/01/14 02:38:56;;;;;;;23.05;10.30;;;1.00;99.90;;;0.75;83.20;100639.59;4827375;28;24468;-64
2024/01/14 02:41:18;;;;;;;19.50;9.18;;;0.90;99.90;;;0.77;82.94;100640.41;4834505;28;24440;-64
2024/01/14 02:43:40;;;;;;;22.35;10.15;;;1.00;99.90;;;0.74;83.23;100648.22;4824120;28;25266;-64
2024/01/14 02:46:02;;;;;;;19.58;8.75;;;1.00;99.90;;;0.76;82.82;100642.16;4828413;28;24443;-64
2024/01/14 02:48:23;;;;;;;22.13;10.70;;;1.00;99.90;;;0.75;83.08;100639.59;4832279;28;24507;-65
2024/01/14 02:50:46;;;;;;;19.50;9.05;;;1.00;99.90;;;0.70;83.93;100636.38;4826297;28;24538;-64
2024/01/14 02:53:08;;;;;;;22.70;10.77;;;1.00;99.90;;;0.72;83.45;100642.28;4826160;28;24444;-64
2024/01/14 02:55:30;;;;;;;25.52;10.98;;;0.90;99.90;;;0.67;83.66;100639.00;4827803;28;24449;-64
2024/01/14 02:57:52;;;;;;;29.13;11.80;;;0.90;99.90;;;0.66;83.96;100643.31;4831620;28;24883;-64
2024/01/14 03:00:15;;;;;;;22.73;9.70;;;0.90;99.90;;;0.68;83.65;100638.13;4832554;28;24961;-64
2024/01/14 03:02:37;;;;;;;20.27;9.45;;;0.90;99.90;;;0.70;83.28;100637.19;4819441;28;25065;-64
2024/01/14 03:04:59;;;;;;;26.38;10.90;;;0.90;99.90;;;0.67;83.46;100636.44;4829905;28;24920;-64
2024/01/14 03:07:21;;;;;;;23.80;10.60;;;0.90;99.90;;;0.69;83.64;100634.66;4825693;28;24444;-63
2024/01/14 03:09:43;;;;;;;26.40;11.05;;;0.90;99.90;;;0.67;83.75;100631.31;4824029;28;25014;-64
2024/01/14 03:12:05;;;;;;;25.23;10.90;;;0.90;99.90;;;0.71;83.55;100632.91;4828290;28;25106;-64
2024/01/14 03:14:27;;;;;;;21.95;9.10;;;0.90;99.90;;;0.74;83.40;100632.81;4820099;28;25038;-64
2024/01/14 03:16:49;;;;;;;23.13;8.80;;;1.00;99.90;;;0.56;83.95;100623.94;4822660;28;24448;-63
2024/01/14 03:19:11;;;;;;;21.40;9.18;;;0.90;99.90;;;0.52;84.21;100616.38;4822343;28;24507;-64
2024/01/14 03:21:33;;;;;;;22.77;10.45;;;0.80;99.90;;;0.50;84.40;100616.44;4824083;28;24421;-64
2024/01/14 03:23:55;;;;;;;21.73;9.98;;;0.80;99.90;;;0.50;84.86;100608.75;4815470;28;24469;-65
2024/01/14 03:26:17;;;;;;;23.00;9.35;;;0.80;99.90;;;0.44;84.78;100608.09;4828486;28;24429;-64
2024/01/14 03:28:39;;;;;;;23.13;9.40;;;0.70;99.90;;;0.20;85.91;100596.00;4823060;28;24487;-63
2024/01/14 03:31:02;;;;;;;13.13;6.30;;;0.60;99.90;;;0.18;86.07;100595.19;4825741;28;24799;-64
2024/01/14 03:33:24;;;;;;;25.15;10.20;;;0.50;99.90;;;0.17;86.21;100598.69;4832276;28;24444;-64
2024/01/14 03:35:46;;;;;;;27.08;11.45;;;0.50;99.90;;;0.19;86.01;100591.78;4825680;28;24475;-62
2024/01/14 03:38:08;;;;;;;27.75;12.20;;;0.50;99.90;;;0.24;86.43;100595.00;4823131;28;24456;-64
2024/01/14 03:40:30;;;;;;;29.92;12.95;;;0.50;99.90;;;0.30;86.36;100599.97;4827429;28;24464;-63
2024/01/14 03:42:52;;;;;;;28.60;11.80;;;0.50;99.90;;;0.38;86.14;100592.88;4818468;28;24461;-64
2024/01/14 03:45:14;;;;;;;28.08;11.18;;;0.60;99.90;;;0.36;85.72;100589.53;4819222;28;24481;-64
2024/01/14 03:47:36;;;;;;;25.00;10.60;;;0.60;99.90;;;0.43;85.30;100591.00;4837053;28;24435;-64
2024/01/14 03:49:58;;;;;;;27.42;11.80;;;0.60;99.90;;;0.37;85.39;100591.19;4833527;28;24455;-64
2024/01/14 03:52:20;;;;;;;26.05;11.35;;;0.70;99.90;;;0.37;85.63;100589.47;4836053;28;24485;-64
2024/01/14 03:54:42;;;;;;;26.90;10.80;;;0.60;99.90;;;0.35;85.21;100592.97;4832179;28;24437;-64
2024/01/14 03:57:04;;;;;;;30.08;12.63;;;0.60;99.90;;;0.33;85.65;100589.59;4827849;28;24440;-63
2024/01/14 03:59:26;;;;;;;27.33;11.68;;;0.60;99.90;;;0.35;85.84;100580.13;4832502;28;24448;-63
2024/01/14 04:01:48;;;;;;;29.75;13.00;;;0.60;99.90;;;0.34;85.99;100581.84;4816472;28;24476;-63
2024/01/14 04:04:10;;;;;;;25.25;10.73;;;0.60;99.90;;;0.40;85.44;100581.69;4835843;28;24520;-64
2024/01/14 04:06:32;;;;;;;24.75;10.60;;;0.60;99.90;;;0.39;85.46;100574.84;4828923;28;24455;-63
2024/01/14 04:08:54;;;;;;;26.40;10.65;;;0.70;99.90;;;0.31;85.46;100581.13;4826255;28;24462;-64
2024/01/14 04:11:16;;;;;;;24.98;9.85;;;0.60;99.90;;;0.32;85.48;100586.19;4829463;28;24451;-63
2024/01/14 04:13:38;;;;;;;23.50;9.93;;;0.60;99.90;;;0.27;85.92;100576.97;4824040;28;24436;-64
2024/01/14 04:16:00;;;;;;;24.48;9.20;;;0.60;99.90;;;0.17;86.20;100578.16;4829954;28;24448;-64
2024/01/14 04:18:23;;;;;;;21.83;6.93;;;0.50;99.90;;;0.03;86.93;100583.69;4835050;28;24942;-63
2024/01/14 04:20:45;;;;;;;25.65;10.10;;;0.40;99.90;;;0.06;87.00;100590.44;4835889;28;24455;-63
2024/01/14 04:23:07;;;;;;;22.45;8.38;;;0.30;99.90;;;0.10;86.85;100589.47;4833174;28;24852;-63
2024/01/14 04:25:29;;;;;;;25.10;10.80;;;0.40;99.90;;;0.06;87.06;100582.75;4837284;28;24494;-63
2024/01/14 04:27:54;;;;;;;19.58;6.60;;;0.40;99.90;;;-0.10;87.23;100567.81;4827539;28;24428;-63
2024/01/14 04:30:16;;;;;;;22.48;9.30;;;0.30;99.90;;;-0.24;88.02;100572.53;4816661;28;25125;-64
2024/01/14 04:32:38;;;;;;;18.85;7.40;;;0.10;99.90;;;-0.16;87.71;100574.84;4828773;28;24452;-61
2024/01/14 04:35:01;;;;;;;30.33;10.82;;;0.10;99.90;;;-0.20;87.75;100576.66;4835969;28;24806;-63
2024/01/14 04:37:23;;;;;;;28.52;11.70;;;0.10;99.90;;;-0.08;87.98;100572.88;4829506;28;24831;-63
2024/01/14 04:39:45;;;;;;;19.35;8.35;;;0.20;99.90;;;-0.02;87.47;100576.13;4830484;28;25248;-63
2024/01/14 04:42:07;;;;;;;21.13;8.57;;;0.30;99.90;;;-0.09;87.26;100579.78;4826551;28;24519;-63
2024/01/14 04:44:29;;;;;;;12.43;5.40;;;0.20;99.90;;;-0.09;86.84;100579.78;4834117;28;24432;-65
2024/01/14 04:46:51;;;;;;;17.10;6.68;;;0.20;99.90;;;-0.14;87.26;100573.06;4818945;28;24500;-64
2024/01/14 04:49:13;;;;;;;17.23;7.05;;;0.20;99.90;;;-0.20;87.71;100576.66;4833937;28;24503;-64
2024/01/14 04:51:35;;;;;;;15.07;5.40;;;0.20;99.90;;;-0.32;88.31;100564.19;4832097;28;24448;-63
2024/01/14 04:53:57;;;;;;;24.98;8.85;;;0.10;99.90;;;-0.41;88.55;100555.94;4834471;28;24467;-63
2024/01/14 04:56:19;;;;;;;25.48;9.38;;;0.00;99.90;;;-0.47;88.86;100564.63;4828437;28;24429;-62
2024/01/14 04:58:41;;;;;;;23.63;9.43;;;-0.10;99.90;;;-0.43;88.96;100561.09;4822003;28;24441;-64
2024/01/14 05:01:03;;;;;;;18.85;7.50;;;-0.10;99.90;;;-0.34;88.30;100565.13;4837567;28;24510;-64
2024/01/14 05:03:25;;;;;;;10.30;4.50;;;0.00;99.90;;;-0.43;88.96;100571.38;4829842;28;24447;-64
2024/01/14 05:05:47;;;;;;;19.90;7.88;;;0.00;99.90;;;-0.40;88.56;100567.84;4828155;28;24540;-63
2024/01/14 05:08:09;;;;;;;13.27;5.53;;;-0.10;99.90;;;-0.33;88.58;100566.78;4826341;28;24524;-64
2024/01/14 05:10:31;;;;;;;18.70;6.63;;;-0.10;99.90;;;-0.33;88.57;100556.53;4824067;28;24487;-64
2024/01/14 05:12:53;;;;;;;8.10;2.35;;;0.00;99.90;;;-0.41;88.12;100551.66;4826325;28;25016;-64
2024/01/14 05:15:15;;;;;;;16.63;6.25;;;0.00;99.90;;;-0.46;88.61;100566.31;4830332;28;24433;-64
2024/01/14 05:17:37;;;;;;;7.03;4.40;;;-0.10;99.90;;;-0.49;88.58;100565.56;4831442;28;24454;-64
2024/01/14 05:20:00;;;;;;;15.38;5.82;;;-0.10;99.90;;;-0.58;88.72;100555.56;4830422;28;24452;-64
2024/01/14 05:22:22;;;;;;;10.88;4.72;;;-0.10;99.90;;;-0.61;88.92;100556.47;4799904;28;24974;-64
2024/01/14 05:24:45;;;;;;;14.18;6.63;;;-0.20;99.90;;;-0.62;89.09;100554.81;4818214;28;24531;-64
2024/01/14 05:27:06;;;;;;;21.88;8.00;;;-0.20;99.90;;;-0.54;88.97;100562.28;4822677;28;25159;-64
2024/01/14 05:29:28;;;;;;;12.57;5.37;;;-0.20;99.90;;;-0.55;89.00;100560.59;4836122;28;24980;-64
2024/01/14 05:31:50;;;;;;;14.13;5.20;;;-0.20;99.90;;;-0.61;88.83;100559.03;4827766;28;24483;-64
2024/01/14 05:34:12;;;;;;;11.65;4.40;;;-0.30;99.90;;;-0.73;89.72;100555.97;4825253;28;24552;-64
2024/01/14 05:36:35;;;;;;;13.38;5.18;;;-0.30;99.90;;;-0.72;89.51;100548.25;4832944;28;24436;-66
2024/01/14 05:38:57;;;;;;;12.27;5.00;;;-0.40;99.90;;;-0.71;90.03;100549.09;4832650;28;24491;-64
2024/01/14 05:41:19;;;;;;;13.00;5.33;;;-0.40;99.90;;;-0.68;89.47;100560.09;4831126;28;24582;-64
2024/01/14 05:43:42;;;;;;;8.60;3.90;;;-0.40;99.90;;;-0.67;88.96;100541.28;4827804;28;24431;-64
2024/01/14 05:46:04;;;;;;;7.47;3.45;;;-0.30;99.90;;;-0.67;88.60;100530.19;4817391;28;24435;-64
2024/01/14 05:48:26;;;;;;;13.05;5.28;;;-0.30;99.90;;;-0.79;89.23;100527.06;4818808;28;25086;-65
2024/01/14 05:50:48;;;;;;;15.00;5.38;;;-0.40;99.90;;;-0.82;89.32;100521.22;4831732;28;24531;-65
2024/01/14 05:53:10;;;;;;;6.50;3.20;;;-0.40;99.90;;;-0.83;89.37;100525.47;4828789;28;24487;-64
2024/01/14 05:55:32;;;;;;;14.88;5.53;;;-0.50;99.90;;;-0.93;89.70;100518.94;4826775;28;24443;-64
2024/01/14 05:57:54;;;;;;;16.25;6.78;;;-0.50;99.90;;;-0.90;89.03;100523.13;4828243;28;24526;-65
2024/01/14 06:00:19;;;;;;;19.52;7.25;;;-0.60;99.90;;;-0.94;89.58;100529.22;4805010;28;25124;-63
2024/01/14 06:02:41;;;;;;;14.70;5.97;;;-0.60;99.90;;;-0.93;90.21;100524.06;4823449;28;24425;-65
2024/01/14 06:05:04;;;;;;;9.23;3.70;;;-0.60;99.90;;;-0.96;89.48;100528.44;4828953;28;25064;-64
2024/01/14 06:07:26;;;;;;;7.05;3.90;;;-0.60;99.90;;;-1.01;89.85;100520.88;4821628;28;24468;-64
2024/01/14 06:09:48;;;;;;;7.82;3.45;;;-0.60;99.90;;;-0.98;90.39;100520.75;4824533;28;24528;-64
2024/01/14 06:12:10;;;;;;;12.48;5.50;;;-0.60;99.90;;;-1.06;90.05;100514.16;4820619;28;25145;-64
2024/01/14 06:14:32;;;;;;;13.80;5.47;;;-0.70;99.90;;;-1.17;90.54;100511.91;4825023;28;24431;-63
2024/01/14 06:16:54;;;;;;;14.40;5.22;;;-0.70;99.90;;;-1.17;90.94;100513.63;4832870;28;25012;-64
2024/01/14 06:19:16;;;;;;;11.60;4.00;;;-0.80;99.90;;;-1.26;90.53;100511.31;4826973;28;24532;-63
2024/01/14 06:21:43;;;;;;;8.63;3.78;;;-0.80;99.90;;;-1.25;91.40;100502.72;4835018;28;24455;-64
2024/01/14 06:24:05;;;;;;;6.03;3.13;;;-0.90;99.90;;;-1.35;92.13;100491.06;4824492;28;24525;-63
2024/01/14 06:26:27;;;;;;;9.73;4.22;;;-0.90;99.90;;;-1.35;91.83;100489.34;4833021;28;24540;-65
2024/01/14 06:28:49;;;;;;;15.85;5.60;;;-1.00;99.90;;;-1.38;92.09;100494.53;4824106;28;24847;-65
2024/01/14 06:31:11;;;;;;;8.38;4.00;;;-0.90;99.90;;;-1.36;91.89;100491.94;4823441;28;24445;-66
2024/01/14 06:33:33;;;;;;;8.73;4.85;;;-1.00;99.90;;;-1.39;91.62;100497.13;4821417;28;25001;-64
2024/01/14 06:35:55;;;;;;;12.07;5.20;;;-1.00;99.90;;;-1.47;92.55;100493.94;4832897;28;24459;-64
2024/01/14 06:38:17;;;;;;;12.32;5.28;;;-1.10;99.90;;;-1.46;92.27;100490.50;4821047;28;24437;-64
2024/01/14 06:40:39;;;;;;;15.93;6.65;;;-1.10;99.90;;;-1.42;91.63;100494.66;4831373;28;24448;-65
2024/01/14 06:43:05;;;;;;;16.92;6.40;;;-1.00;99.90;;;-1.40;91.47;100493.72;4830357;28;24452;-65
2024/01/14 06:45:27;;;;;;;14.18;6.05;;;-1.10;99.90;;;-1.41;92.12;100491.22;4820813;28;24970;-65
2024/01/14 06:47:50;;;;;;;6.90;3.47;;;-1.00;99.90;;;-1.45;91.87;100494.75;4829599;28;24897;-65
2024/01/14 06:50:12;;;;;;;10.02;3.47;;;-1.10;99.90;;;-1.61;92.31;100487.44;4830713;28;24868;-64
2024/01/14 06:52:37;;;;;;;17.73;5.80;;;-1.10;99.90;;;-1.53;91.66;100481.31;4819178;28;24544;-64
2024/01/14 06:54:58;;;;;;;13.55;4.72;;;-1.10;99.90;;;-1.58;92.04;100479.69;4832745;28;25237;-64
2024/01/14 06:57:20;;;;;;;8.50;3.17;;;-1.20;99.90;;;-1.64;91.70;100477.28;4821238;28;25383;-62
2024/01/14 06:59:42;;;;;;;9.98;5.03;;;-1.20;99.90;;;-1.66;91.85;100479.03;4830267;28;24444;-63
2024/01/14 07:02:05;;;;;;;12.80;5.78;;;-1.20;99.90;;;-1.69;92.29;100479.13;4805873;28;24990;-64
2024/01/14 07:04:27;;;;;;;13.10;3.20;;;-1.30;99.90;;;-1.70;92.90;100480.00;4820118;28;24449;-64
2024/01/14 07:06:49;;;;;;;10.68;4.78;;;-1.30;99.90;;;-1.72;92.77;100476.63;4806055;28;24436;-64
2024/01/14 07:09:12;;;;;;;13.65;5.35;;;-1.30;99.90;;;-1.71;92.41;100475.78;4827529;28;24515;-64
2024/01/14 07:11:35;;;;;;;16.65;6.28;;;-1.30;99.90;;;-1.65;92.15;100470.50;4832829;28;24443;-64
2024/01/14 07:13:58;;;;;;;15.75;6.20;;;-1.30;99.90;;;-1.72;92.67;100473.22;4831324;28;24506;-65
2024/01/14 07:16:20;;;;;;;16.65;5.65;;;-1.30;99.90;;;-1.70;92.15;100480.00;4829252;28;24433;-64
2024/01/14 07:18:42;;;;;;;10.43;4.93;;;-1.30;99.90;;;-1.65;92.33;100465.38;4816432;28;24500;-65
2024/01/14 07:21:07;;;;;;;14.57;6.03;;;-1.30;99.90;;;-1.63;92.09;100473.00;4830222;28;24531;-65
2024/01/14 07:23:29;;;;;;;15.73;6.45;;;-1.30;99.90;;;-1.60;92.35;100468.63;4821759;28;24445;-64
2024/01/14 07:26:18;;;;;;;6.68;3.45;;;-1.30;99.90;;;-1.57;92.34;100460.06;4830930;28;24471;-64
2024/01/14 07:28:45;;;;;;;8.68;3.88;;;-1.20;99.90;;;-1.55;91.78;100457.47;4835725;28;25012;-65
2024/01/14 07:31:07;;;;;;;6.95;3.63;;;-1.20;99.90;;;-1.57;91.92;100460.91;4822530;28;24978;-64
2024/01/14 07:33:29;;;;;;;9.65;4.57;;;-1.10;99.90;;;-1.61;91.97;100456.75;4834383;28;24468;-65
2024/01/14 07:35:51;;;;;;;7.50;3.75;;;-1.20;99.90;;;-1.60;91.87;100450.72;4822985;28;24495;-64
2024/01/14 07:38:13;;;;;;;7.93;3.47;;;-1.20;99.90;;;-1.61;91.77;100443.94;4818037;28;24436;-64
2024/01/14 07:40:36;;;;;;;10.85;4.97;;;-1.20;99.90;;;-1.65;91.97;100439.78;4826568;28;24484;-64
2024/01/14 07:42:58;;;;;;;9.93;4.40;;;-1.20;99.90;;;-1.78;92.39;100446.09;4826896;28;25106;-64
2024/01/14 07:45:20;;;;;;;8.48;3.80;;;-1.30;99.90;;;-1.79;93.27;100446.97;4817516;28;24456;-63
2024/01/14 07:47:42;;;;;;;4.63;2.78;;;-1.30;99.90;;;-1.77;93.01;100450.31;4836215;28;24429;-63
2024/01/14 07:50:04;;;;;;;6.90;3.30;;;-1.30;99.90;;;-1.69;92.29;100453.53;4828565;28;24437;-64
2024/01/14 07:52:27;;;;;;;13.30;4.90;;;-1.30;99.90;;;-1.59;92.51;100454.13;4833203;28;25045;-64
2024/01/14 07:54:49;;;;;;;11.85;5.13;;;-1.20;99.90;;;-1.69;92.54;100443.31;4818708;28;24999;-65
2024/01/14 07:57:11;;;;;;;9.57;4.13;;;-1.20;99.90;;;-1.74;92.47;100444.28;4814140;28;24436;-65
2024/01/14 07:59:33;;;;;;;13.23;4.85;;;-1.30;99.90;;;-1.75;93.29;100445.19;4795642;28;25022;-64
2024/01/14 08:01:57;;;;;;;11.48;4.13;;;-1.30;99.90;;;-1.63;92.55;100448.28;4829265;28;24826;-64
2024/01/14 08:04:19;;;;;;;7.75;3.85;;;-1.30;99.90;;;-1.54;92.04;100442.09;4828251;28;24869;-63
2024/01/14 08:06:41;;;;;;;13.02;6.18;;;-1.20;99.90;;;-1.45;91.80;100451.25;4832947;28;25037;-65
2024/01/14 08:09:03;;;;;;;16.52;6.07;;;-1.20;99.90;;;-1.35;91.27;100440.72;4822613;28;24830;-67
2024/01/14 08:11:25;;;;;;;10.80;4.70;;;-1.00;99.90;;;-1.16;89.98;100448.75;4819498;28;24451;-65
2024/01/14 08:13:48;;;;;;;18.58;6.15;;;-0.90;99.90;;;-1.10;89.79;100451.97;4832979;28;24455;-64
2024/01/14 08:16:10;;;;;;;14.57;5.25;;;-0.80;99.90;;;-1.01;89.46;100454.28;4826711;28;24491;-65
2024/01/14 08:18:32;;;;;;;10.95;5.32;;;-0.70;99.90;;;-0.87;89.32;100457.28;4824662;28;25017;-64
2024/01/14 08:20:54;;;;;;;14.63;6.10;;;-0.60;99.90;;;-0.64;87.71;100456.66;4835591;28;25311;-64
2024/01/14 08:23:16;;;;;;;13.38;5.80;;;-0.40;99.90;;;-0.54;86.76;100447.81;4827773;28;24438;-64
2024/01/14 08:25:38;;;;;;;14.68;5.75;;;-0.30;99.90;;;-0.46;86.42;100448.41;4834831;28;24476;-64
2024/01/14 08:28:00;;;;;;;10.02;4.93;;;-0.30;99.90;;;-0.41;85.61;100444.00;4832589;28;24581;-64
2024/01/14 08:30:22;;;;;;;5.95;3.55;;;-0.20;99.90;;;-0.44;85.88;100436.38;4830998;28;25157;-64
2024/01/14 08:32:44;;;;;;;13.00;5.82;;;-0.20;99.90;;;-0.42;85.79;100434.63;4830246;28;24503;-64
2024/01/14 08:35:07;;;;;;;5.65;3.45;;;-0.20;99.90;;;-0.33;84.76;100438.63;4829519;28;24479;-64
2024/01/14 08:37:29;;;;;;;14.60;5.63;;;-0.10;99.90;;;-0.36;85.23;100429.28;4827857;28;24464;-64
2024/01/14 08:39:51;;;;;;;11.05;4.35;;;-0.10;99.90;;;-0.43;85.29;100439.78;4821460;28;24441;-64
2024/01/14 08:42:13;;;;;;;13.05;5.55;;;-0.10;99.90;;;-0.36;85.18;100434.41;4821651;28;24456;-65
2024/01/14 08:44:35;;;;;;;11.60;5.00;;;-0.10;99.90;;;-0.39;85.02;100441.38;4817788;28;25006;-66
2024/01/14 08:46:57;;;;;;;8.38;3.90;;;-0.10;99.90;;;-0.46;85.14;100437.31;4832763;28;24435;-65
2024/01/14 08:49:19;;;;;;;10.63;4.37;;;-0.10;99.90;;;-0.62;85.96;100436.94;4831882;28;24578;-67
2024/01/14 08:51:41;;;;;;;10.05;4.50;;;-0.30;99.90;;;-0.81;87.01;100425.56;4828795;28;24548;-64
2024/01/14 08:54:03;;;;;;;10.23;3.28;;;-0.40;99.90;;;-0.79;87.21;100431.47;4827683;28;25089;-65
2024/01/14 08:56:25;;;;;;;7.53;2.85;;;-0.40;99.90;;;-0.64;87.01;100431.03;4826044;28;24572;-64
2024/01/14 08:58:47;;;;;;;7.70;3.10;;;-0.40;99.90;;;-0.52;86.83;100433.22;4826715;28;24863;-64
2024/01/14 09:01:09;;;;;;;13.50;5.13;;;-0.30;99.90;;;-0.45;85.98;100429.59;4833973;28;25060;-66
2024/01/14 09:03:31;;;;;;;8.45;3.65;;;-0.20;99.90;;;-0.39;85.57;100436.25;4835250;28;24425;-65
2024/01/14 09:05:53;;;;;;;4.95;2.55;;;-0.10;99.90;;;-0.58;85.52;100433.41;4835052;28;24444;-65
2024/01/14 09:08:16;;;;;;;8.13;3.33;;;-0.10;99.90;;;-0.68;85.89;100421.72;4821952;28;24543;-65
2024/01/14 09:10:38;;;;;;;6.30;2.78;;;-0.30;99.90;;;-0.73;87.25;100422.75;4827811;28;25080;-65
2024/01/14 09:13:00;;;;;;;4.40;2.33;;;-0.40;99.90;;;-0.78;87.02;100425.47;4807918;28;24476;-63
2024/01/14 09:15:22;;;;;;;5.82;2.65;;;-0.40;99.90;;;-0.69;87.11;100420.06;4829399;28;24433;-64
2024/01/14 09:17:44;;;;;;;11.53;4.40;;;-0.40;99.90;;;-0.67;86.89;100423.44;4827738;28;24436;-65
2024/01/14 09:20:07;;;;;;;9.05;4.45;;;-0.40;99.90;;;-0.59;86.87;100424.03;4833689;28;24518;-65
2024/01/14 09:22:29;;;;;;;10.48;4.35;;;-0.30;99.90;;;-0.33;85.90;100424.09;4827860;28;24858;-66
2024/01/14 09:24:51;;;;;;;6.88;3.80;;;-0.20;99.90;;;-0.03;84.21;100418.00;4830040;28;24456;-65
2024/01/14 09:27:14;;;;;;;15.15;5.35;;;0.10;99.90;;;0.28;82.79;100427.28;4816283;28;25040;-64
2024/01/14 09:29:37;;;;;;;10.80;4.40;;;0.30;99.90;;;0.49;82.08;100422.22;4826160;28;24440;-66
2024/01/14 09:31:59;;;;;;;10.53;5.13;;;0.60;99.90;;;0.61;80.65;100423.53;4822588;28;24498;-67
2024/01/14 09:34:21;;;;;;;11.20;5.20;;;0.70;99.90;;;0.84;79.68;100420.16;4822724;28;24436;-64
2024/01/14 09:36:43;;;;;;;13.50;4.80;;;0.90;99.90;;;0.64;80.10;100423.41;4812071;28;24456;-64
2024/01/14 09:39:05;;;;;;;10.20;4.68;;;0.90;99.90;;;0.49;80.50;100426.53;4814225;28;24468;-63
2024/01/14 09:41:55;;;;;;;7.70;3.78;;;0.80;99.90;;;0.38;80.58;100418.38;4818939;28;24477;-67
2024/01/14 09:44:18;;;;;;;5.50;3.03;;;0.70;99.90;;;0.34;81.08;100414.22;4816319;28;24455;-66
2024/01/14 09:46:40;;;;;;;11.10;4.80;;;0.60;99.90;;;0.27;81.25;100416.16;4824163;28;24475;-65
2024/01/14 09:49:02;;;;;;;7.90;3.92;;;0.60;99.90;;;0.13;81.96;100409.81;4835079;28;24443;-66
2024/01/14 09:51:30;;;;;;;9.13;4.20;;;0.40;99.90;;;0.12;82.37;100413.25;4831637;28;24483;-65
2024/01/14 09:53:53;;;;;;;14.07;5.03;;;0.40;99.90;;;0.17;81.92;100408.81;4834355;28;24910;-64